Time;durP1;ratioP1;P1;durP2;ratioP2;P2;SDS_P1;SDS_P2;PMS_P1;PMS_P2;Temp;Humidity;BMP_temperature;BMP_pressure;BME280_temperature;BME280_humidity;BME280_pressure;Samples;Min_cycle;Max_cycle;Signal;HPM_P1;HPM_P2
2023/10/04 00:01:16;;;;;;;;;;;;;;;31.67;33.33;98435.22;5007015;28;19918;-87
2023/10/04 00:03:42;;;;;;;;;;;;;;;31.34;34.09;98440.78;5008824;28;19929;-86
2023/10/04 00:06:09;;;;;;;;;;;;;;;31.55;33.52;98435.44;5006193;28;19930;-86
2023/10/04 00:08:35;;;;;;;;;;;;;;;32.21;32.67;98439.19;5011054;28;19922;-87
2023/10/04 00:11:02;;;;;;;;;;;;;;;32.15;32.79;98424.03;5013086;28;20285;-88
2023/10/04 00:13:28;;;;;;;;;;;;;;;32.31;32.49;98427.25;5005681;28;19975;-87
2023/10/04 00:15:54;;;;;;;;;;;;;;;32.68;31.91;98428.63;5005287;28;20449;-87
2023/10/04 00:18:20;;;;;;;;;;;;;;;32.69;31.25;98426.59;5006336;28;19925;-87
2023/10/04 00:20:46;;;;;;;;;;;;;;;32.70;31.43;98428.13;5009542;28;19926;-88
2023/10/04 00:23:13;;;;;;;;;;;;;;;32.67;31.53;98438.44;5012267;28;20345;-87
2023/10/04 00:25:39;;;;;;;;;;;;;;;32.77;31.11;98424.16;5021538;28;20340;-87
2023/10/04 00:28:05;;;;;;;;;;;;;;;32.21;32.13;98450.53;5008642;28;19960;-87
2023/10/04 00:30:32;;;;;;;;;;;;;;;32.09;32.56;98450.25;5012999;28;19914;-87
2023/10/04 00:32:58;;;;;;;;;;;;;;;32.56;31.76;98458.09;5015048;28;19928;-87
2023/10/04 00:35:25;;;;;;;;;;;;;;;32.39;31.65;98458.97;5015517;28;20209;-86
2023/10/04 00:38:00;;;;;;;;;;;;;;;32.08;31.93;98467.78;5015361;28;19960;-86
2023/10/04 00:40:27;;;;;;;;;;;;;;;31.37;32.71;98484.47;5015355;28;20419;-86
2023/10/04 00:42:55;;;;;;;;;;;;;;;31.53;32.69;98487.00;5022503;28;19925;-86
2023/10/04 00:45:23;;;;;;;;;;;;;;;31.76;31.98;98494.06;5008896;28;19921;-87
2023/10/04 00:47:51;;;;;;;;;;;;;;;32.14;31.58;98488.59;5014759;28;20386;-87
2023/10/04 00:50:18;;;;;;;;;;;;;;;32.33;31.23;98497.81;5020316;28;20412;-87
2023/10/04 00:52:47;;;;;;;;;;;;;;;31.72;31.93;98493.44;5013602;28;19921;-86
2023/10/04 00:55:16;;;;;;;;;;;;;;;31.46;32.48;98501.50;5014617;28;19917;-87
2023/10/04 00:57:43;;;;;;;;;;;;;;;30.82;33.37;98516.88;5013578;28;19928;-84
2023/10/04 01:00:10;;;;;;;;;;;;;;;31.19;32.69;98519.31;5014371;28;20012;-86
2023/10/04 01:02:37;;;;;;;;;;;;;;;31.89;31.83;98526.69;5005579;28;20016;-86
2023/10/04 01:05:04;;;;;;;;;;;;;;;32.47;30.51;98539.78;5009521;28;19940;-86
2023/10/04 01:07:31;;;;;;;;;;;;;;;32.04;30.98;98546.75;5011187;28;20024;-86
2023/10/04 01:09:58;;;;;;;;;;;;;;;31.88;31.37;98547.06;5011520;28;20408;-86
2023/10/04 01:12:24;;;;;;;;;;;;;;;31.30;31.98;98553.69;5008727;28;19918;-87
2023/10/04 01:15:03;;;;;;;;;;;;;;;31.25;32.20;98562.06;5007416;28;19929;-86
2023/10/04 01:17:29;;;;;;;;;;;;;;;31.83;31.51;98568.38;5007770;28;19934;-87
2023/10/04 01:19:56;;;;;;;;;;;;;;;31.91;30.96;98560.28;5001786;28;19936;-87
2023/10/04 01:22:22;;;;;;;;;;;;;;;31.51;31.14;98571.84;5010652;28;19940;-85
2023/10/04 01:24:48;;;;;;;;;;;;;;;31.29;31.68;98569.16;5005429;28;19922;-86
2023/10/04 01:27:14;;;;;;;;;;;;;;;31.07;32.02;98567.69;4998694;28;19942;-86
2023/10/04 01:29:40;;;;;;;;;;;;;;;31.00;32.78;98573.66;4998996;28;20374;-86
2023/10/04 01:32:08;;;;;;;;;;;;;;;30.95;31.87;98572.25;5006540;28;19928;-86
2023/10/04 01:34:36;;;;;;;;;;;;;;;31.00;31.88;98580.13;5008883;28;19921;-86
2023/10/04 01:37:03;;;;;;;;;;;;;;;30.33;32.92;98587.75;5008042;28;19944;-86
2023/10/04 01:39:30;;;;;;;;;;;;;;;30.17;33.38;98594.41;5009405;28;20008;-85
2023/10/04 01:41:56;;;;;;;;;;;;;;;29.86;33.86;98597.19;5013394;28;19953;-85
2023/10/04 01:44:22;;;;;;;;;;;;;;;29.86;33.76;98593.56;4998940;28;19984;-86
2023/10/04 01:46:48;;;;;;;;;;;;;;;29.19;35.65;98619.41;5003642;28;19921;-85
2023/10/04 01:49:14;;;;;;;;;;;;;;;29.31;34.48;98632.69;5003659;28;19940;-85
2023/10/04 01:51:42;;;;;;;;;;;;;;;29.61;33.55;98627.63;5004743;28;20353;-85
2023/10/04 01:54:09;;;;;;;;;;;;;;;29.36;34.02;98634.94;5001496;28;19928;-85
2023/10/04 01:56:37;;;;;;;;;;;;;;;29.19;34.46;98655.38;5006780;28;19922;-85
2023/10/04 01:59:04;;;;;;;;;;;;;;;28.63;34.85;98644.66;5012392;28;19921;-84
2023/10/04 02:01:31;;;;;;;;;;;;;;;29.17;34.37;98652.94;5005466;28;19921;-86
2023/10/04 02:04:00;;;;;;;;;;;;;;;29.08;34.43;98657.75;4998869;28;20020;-86
2023/10/04 02:06:28;;;;;;;;;;;;;;;29.59;33.25;98659.22;5014132;28;19922;-87
2023/10/04 02:08:54;;;;;;;;;;;;;;;29.98;32.40;98643.69;5009906;28;19975;-85
2023/10/04 02:11:21;;;;;;;;;;;;;;;29.70;33.03;98665.31;5009710;28;19919;-86
2023/10/04 02:13:47;;;;;;;;;;;;;;;29.52;33.39;98655.84;5005237;28;20368;-85
2023/10/04 02:16:19;;;;;;;;;;;;;;;29.88;32.74;98665.47;5011868;28;19921;-86
2023/10/04 02:18:48;;;;;;;;;;;;;;;29.97;32.18;98674.03;5014305;28;20008;-85
2023/10/04 02:21:14;;;;;;;;;;;;;;;29.92;32.62;98682.34;5013910;28;20393;-86
2023/10/04 02:23:41;;;;;;;;;;;;;;;30.15;32.19;98679.06;5011359;28;19949;-87
2023/10/04 02:26:07;;;;;;;;;;;;;;;29.99;33.89;98687.75;5013346;28;19922;-84
2023/10/04 02:28:34;;;;;;;;;;;;;;;29.59;32.76;98698.06;5013719;28;19918;-85
2023/10/04 02:31:02;;;;;;;;;;;;;;;30.15;31.86;98686.75;5012851;28;19922;-87
2023/10/04 02:33:33;;;;;;;;;;;;;;;30.25;31.81;98702.56;5013347;28;19968;-87
2023/10/04 02:36:00;;;;;;;;;;;;;;;30.37;31.27;98701.72;5013633;28;19924;-86
2023/10/04 02:38:27;;;;;;;;;;;;;;;30.13;31.61;98707.03;5013109;28;19925;-87
2023/10/04 02:40:53;;;;;;;;;;;;;;;29.70;32.31;98718.28;5013722;28;19917;-86
2023/10/04 02:43:25;;;;;;;;;;;;;;;29.22;32.91;98713.88;5011435;28;21336;-85
2023/10/04 02:45:52;;;;;;;;;;;;;;;29.32;32.66;98724.03;5014119;28;19953;-86
2023/10/04 02:48:19;;;;;;;;;;;;;;;29.38;32.30;98727.88;5017631;28;19917;-85
2023/10/04 02:50:46;;;;;;;;;;;;;;;28.85;33.53;98737.22;5017455;28;20357;-86
2023/10/04 02:53:13;;;;;;;;;;;;;;;29.05;34.84;98741.44;5017434;28;19921;-86
2023/10/04 02:55:40;;;;;;;;;;;;;;;28.96;33.08;98740.53;5012212;28;20021;-87
2023/10/04 02:58:07;;;;;;;;;;;;;;;29.19;32.74;98748.72;5015581;28;19921;-87
2023/10/04 03:00:42;;;;;;;;;;;;;;;29.08;32.57;98743.34;5017091;28;19921;-87
2023/10/04 03:03:08;;;;;;;;;;;;;;;29.16;32.34;98750.38;5014409;28;19947;-87
2023/10/04 03:05:35;;;;;;;;;;;;;;;29.12;32.65;98751.72;5016574;28;19917;-87
2023/10/04 03:08:06;;;;;;;;;;;;;;;28.67;33.91;98746.25;5016872;28;19922;-86
2023/10/04 03:10:33;;;;;;;;;;;;;;;29.00;32.39;98747.66;5021860;28;19960;-87
2023/10/04 03:13:11;;;;;;;;;;;;;;;29.34;31.90;98759.09;5006682;28;19929;-87
2023/10/04 03:15:43;;;;;;;;;;;;;;;29.16;32.21;98763.72;5021936;28;19919;-87
2023/10/04 03:18:18;;;;;;;;;;;;;;;29.00;32.21;98761.00;5014418;28;20016;-87
2023/10/04 03:21:30;;;;;;;;;;;;;;;28.79;32.72;98753.16;5014663;28;20008;-86
2023/10/04 03:23:40;;;;;;;;;;;;;;;28.39;33.38;98756.34;5002266;28;19925;-87
2023/10/04 03:26:06;;;;;;;;;;;;;;;27.83;34.45;98750.19;5015727;28;20090;-86
2023/10/04 03:28:33;;;;;;;;;;;;;;;27.54;35.09;98765.50;5011006;28;19928;-87
2023/10/04 03:31:04;;;;;;;;;;;;;;;27.46;34.98;98778.97;5018875;28;19921;-86
2023/10/04 03:33:37;;;;;;;;;;;;;;;27.60;36.70;98761.69;5015704;28;19928;-85
2023/10/04 03:36:04;;;;;;;;;;;;;;;28.48;33.89;98778.28;4996636;28;20441;-88
2023/10/04 03:38:33;;;;;;;;;;;;;;;28.98;32.19;98781.25;4996699;28;19918;-88
2023/10/04 03:41:00;;;;;;;;;;;;;;;28.90;32.46;98779.06;5009371;28;19918;-86
2023/10/04 03:43:27;;;;;;;;;;;;;;;29.24;32.00;98787.75;5016260;28;19932;-87
2023/10/04 03:45:54;;;;;;;;;;;;;;;29.07;32.20;98797.53;5016685;28;20373;-88
2023/10/04 03:48:21;;;;;;;;;;;;;;;30.02;30.57;98795.22;5023218;28;20428;-87
2023/10/04 03:50:48;;;;;;;;;;;;;;;30.34;30.13;98799.78;5036630;28;19917;-88
2023/10/04 03:53:15;;;;;;;;;;;;;;;30.33;29.55;98814.41;5022130;28;19926;-88
2023/10/04 03:55:42;;;;;;;;;;;;;;;30.51;29.54;98818.19;5016601;28;19972;-88
2023/10/04 03:58:12;;;;;;;;;;;;;;;30.82;29.27;98811.78;5013036;28;20012;-88
2023/10/04 04:00:39;;;;;;;;;;;;;;;29.39;31.30;98820.78;5008266;28;20279;-88
2023/10/04 04:03:06;;;;;;;;;;;;;;;29.43;30.91;98832.75;5009001;28;19929;-89
2023/10/04 04:05:38;;;;;;;;;;;;;;;29.81;30.32;98835.59;5009004;28;19921;-88
2023/10/04 04:08:05;;;;;;;;;;;;;;;30.63;29.43;98845.69;5008255;28;19929;-88
2023/10/04 04:10:31;;;;;;;;;;;;;;;30.17;30.18;98842.91;5006395;28;19921;-86
2023/10/04 04:13:01;;;;;;;;;;;;;;;30.26;29.65;98837.31;5010369;28;19952;-89
2023/10/04 04:15:27;;;;;;;;;;;;;;;30.14;29.58;98844.59;5008122;28;19926;-88
2023/10/04 04:17:53;;;;;;;;;;;;;;;30.02;29.87;98845.41;5010249;28;19929;-90
2023/10/04 04:20:23;;;;;;;;;;;;;;;30.00;30.15;98839.41;5004506;28;20312;-87
2023/10/04 04:22:55;;;;;;;;;;;;;;;30.03;29.64;98841.34;5014003;28;19926;-88
2023/10/04 04:25:22;;;;;;;;;;;;;;;30.03;29.34;98839.31;5014455;28;20378;-87
2023/10/04 04:27:52;;;;;;;;;;;;;;;29.24;30.40;98845.09;5003284;28;20365;-89
2023/10/04 04:30:20;;;;;;;;;;;;;;;29.59;30.01;98853.72;5011738;28;20419;-91
2023/10/04 04:32:52;;;;;;;;;;;;;;;29.13;30.68;98846.63;5007433;28;19926;-89
2023/10/04 04:38:19;;;;;;;;;;;;;;;29.15;30.43;98863.97;5005953;28;19940;-88
2023/10/04 04:40:50;;;;;;;;;;;;;;;28.77;31.05;98868.72;5005942;28;19921;-85
2023/10/04 04:45:52;;;;;;;;;;;;;;;28.56;31.21;98872.91;5000943;28;19921;-87
2023/10/04 04:48:18;;;;;;;;;;;;;;;29.23;30.01;98885.94;5006666;28;19975;-89
2023/10/04 04:50:48;;;;;;;;;;;;;;;29.27;29.93;98878.13;5003930;28;19921;-90
2023/10/04 04:53:15;;;;;;;;;;;;;;;29.01;29.91;98865.16;5011465;28;19929;-90
2023/10/04 04:55:41;;;;;;;;;;;;;;;29.74;28.99;98885.97;5010216;28;19928;-90
2023/10/04 04:58:07;;;;;;;;;;;;;;;29.71;28.75;98886.91;5004771;28;19921;-90
2023/10/04 05:00:33;;;;;;;;;;;;;;;29.99;28.59;98897.31;5009820;28;20003;-90
2023/10/04 05:03:02;;;;;;;;;;;;;;;30.18;28.18;98899.09;5014364;28;19924;-90
2023/10/04 05:05:29;;;;;;;;;;;;;;;30.32;28.01;98911.97;5014748;28;19922;-89
2023/10/04 05:07:55;;;;;;;;;;;;;;;30.85;27.32;98912.97;5015014;28;20069;-90
2023/10/04 05:10:25;;;;;;;;;;;;;;;30.74;27.47;98910.50;5014025;28;19920;-90
2023/10/04 05:12:52;;;;;;;;;;;;;;;30.50;28.02;98917.88;5017633;28;19918;-89
2023/10/04 05:15:32;;;;;;;;;;;;;;;30.84;27.36;98920.69;5034664;28;19920;-90
2023/10/04 05:18:00;;;;;;;;;;;;;;;29.63;29.62;98916.66;5034573;28;19917;-87
2023/10/04 05:20:31;;;;;;;;;;;;;;;30.08;28.33;98923.69;4995206;28;19914;-89
2023/10/04 05:23:00;;;;;;;;;;;;;;;29.56;29.49;98920.50;4995456;28;19937;-86
2023/10/04 05:25:29;;;;;;;;;;;;;;;29.29;29.52;98937.13;4995394;28;20004;-89
2023/10/04 05:28:05;;;;;;;;;;;;;;;28.24;31.21;98949.25;5001653;28;19953;-87
2023/10/04 05:30:31;;;;;;;;;;;;;;;28.60;30.65;98952.75;5012374;28;19921;-89
2023/10/04 05:32:57;;;;;;;;;;;;;;;28.90;29.93;98957.19;5014445;28;19928;-89
2023/10/04 05:35:24;;;;;;;;;;;;;;;28.14;30.83;98962.38;5014751;28;19917;-88
2023/10/04 05:37:50;;;;;;;;;;;;;;;29.31;29.14;98968.56;5014569;28;19918;-89
2023/10/04 05:40:19;;;;;;;;;;;;;;;29.80;28.21;98963.47;5014488;28;19924;-88
2023/10/04 05:42:46;;;;;;;;;;;;;;;29.60;28.40;98974.16;5013597;28;20385;-89
2023/10/04 05:45:12;;;;;;;;;;;;;;;29.60;28.69;98974.16;5013714;28;19921;-89
2023/10/04 05:47:38;;;;;;;;;;;;;;;29.04;29.43;98985.88;5014711;28;19961;-88
2023/10/04 05:50:13;;;;;;;;;;;;;;;28.60;29.79;98987.47;5014484;28;20014;-88
2023/10/04 05:52:39;;;;;;;;;;;;;;;28.28;30.37;98990.28;5014583;28;19929;-88
2023/10/04 05:55:08;;;;;;;;;;;;;;;28.90;29.83;98997.56;5013851;28;19924;-89
2023/10/04 05:57:35;;;;;;;;;;;;;;;29.58;28.77;99000.09;5014417;28;19918;-90
2023/10/04 06:00:22;;;;;;;;;;;;;;;29.89;28.38;99000.41;5014510;28;19917;-88
2023/10/04 06:02:52;;;;;;;;;;;;;;;29.41;28.81;99007.84;5012599;28;19917;-90
2023/10/04 06:05:22;;;;;;;;;;;;;;;29.21;28.86;99012.09;5028554;28;19960;-90
2023/10/04 06:07:49;;;;;;;;;;;;;;;29.25;28.68;99015.63;5033858;28;19917;-90
2023/10/04 06:10:16;;;;;;;;;;;;;;;29.13;28.86;99019.94;5033819;28;19917;-90
2023/10/04 06:12:44;;;;;;;;;;;;;;;29.67;28.04;99031.34;5018626;28;19921;-90
2023/10/04 06:15:11;;;;;;;;;;;;;;;30.18;27.67;99042.78;5013922;28;19944;-88
2023/10/04 06:17:44;;;;;;;;;;;;;;;30.09;27.73;99041.41;5005887;28;19922;-88
2023/10/04 06:20:30;;;;;;;;;;;;;;;30.13;27.52;99046.97;4993856;28;19929;-88
2023/10/04 06:23:00;;;;;;;;;;;;;;;29.08;28.52;99054.44;5032955;28;20425;-88
2023/10/04 06:25:29;;;;;;;;;;;;;;;28.95;28.95;99050.75;5033637;28;20332;-88
2023/10/04 06:27:56;;;;;;;;;;;;;;;29.19;28.51;99054.97;5022262;28;19918;-88
2023/10/04 06:30:23;;;;;;;;;;;;;;;28.84;28.62;99055.91;5013906;28;20012;-87
2023/10/04 06:32:55;;;;;;;;;;;;;;;27.99;30.38;99060.75;5013293;28;19994;-87
2023/10/04 06:35:25;;;;;;;;;;;;;;;28.66;29.12;99070.47;5013804;28;19925;-87
2023/10/04 06:37:51;;;;;;;;;;;;;;;29.19;28.08;99069.13;5016563;28;19914;-88
2023/10/04 06:40:21;;;;;;;;;;;;;;;29.12;28.17;99074.94;5033525;28;19979;-88
2023/10/04 06:42:48;;;;;;;;;;;;;;;29.32;27.83;99064.31;5017684;28;19922;-90
2023/10/04 06:45:15;;;;;;;;;;;;;;;28.71;29.26;99081.25;5013788;28;20392;-90
2023/10/04 06:47:44;;;;;;;;;;;;;;;29.07;28.13;99083.97;5013724;28;19941;-88
2023/10/04 06:50:13;;;;;;;;;;;;;;;29.03;28.32;99086.09;5013799;28;19929;-88
2023/10/04 06:52:43;;;;;;;;;;;;;;;29.37;27.85;99086.41;5013665;28;19928;-90
2023/10/04 06:55:11;;;;;;;;;;;;;;;29.94;27.53;99082.75;5018784;28;20051;-90
2023/10/04 06:57:39;;;;;;;;;;;;;;;30.52;26.95;99096.78;5033185;28;19928;-91
2023/10/04 07:00:13;;;;;;;;;;;;;;;29.95;27.16;99101.34;5033372;28;19944;-91
2023/10/04 07:02:43;;;;;;;;;;;;;;;29.24;28.17;99090.41;5032652;28;20008;-90
2023/10/04 07:05:13;;;;;;;;;;;;;;;30.09;27.31;99095.25;5013518;28;19924;-88
2023/10/04 07:07:39;;;;;;;;;;;;;;;30.51;27.04;99101.63;5013659;28;19921;-88
2023/10/04 07:10:07;;;;;;;;;;;;;;;30.64;26.60;99101.66;5013564;28;19917;-88
2023/10/04 07:12:33;;;;;;;;;;;;;;;31.20;25.18;99102.56;5013646;28;20385;-88
2023/10/04 07:15:00;;;;;;;;;;;;;;;31.52;25.26;99107.16;5013406;28;19917;-88
2023/10/04 07:17:29;;;;;;;;;;;;;;;31.58;25.29;99108.13;4996369;28;19917;-90
2023/10/04 07:19:57;;;;;;;;;;;;;;;30.68;26.07;99091.78;4993898;28;19969;-90
2023/10/04 07:22:29;;;;;;;;;;;;;;;30.01;26.74;99102.34;4993713;28;19922;-90
2023/10/04 07:24:57;;;;;;;;;;;;;;;30.04;26.91;99095.78;5002720;28;19991;-87
2023/10/04 07:27:23;;;;;;;;;;;;;;;30.21;26.06;99102.16;5013186;28;19968;-88
2023/10/04 07:29:50;;;;;;;;;;;;;;;30.00;27.73;99103.63;5023513;28;20063;-87
2023/10/04 07:32:16;;;;;;;;;;;;;;;30.49;26.09;99106.97;5032837;28;19921;-89
2023/10/04 07:34:42;;;;;;;;;;;;;;;29.60;28.39;99112.84;5024338;28;19917;-86
2023/10/04 07:37:08;;;;;;;;;;;;;;;29.76;27.01;99112.81;5017076;28;19924;-88
2023/10/04 07:39:35;;;;;;;;;;;;;;;30.64;26.29;99113.75;5016705;28;19917;-89
2023/10/04 07:42:02;;;;;;;;;;;;;;;30.61;26.44;99111.84;5016658;28;20385;-90
2023/10/04 07:44:30;;;;;;;;;;;;;;;31.08;25.76;99120.44;5016368;28;19917;-91
2023/10/04 07:46:59;;;;;;;;;;;;;;;30.21;26.12;99122.00;5028191;28;19913;-89
2023/10/04 07:49:26;;;;;;;;;;;;;;;29.75;27.03;99123.34;5036426;28;19918;-90
2023/10/04 07:51:52;;;;;;;;;;;;;;;30.63;25.99;99117.84;5034997;28;20439;-91
2023/10/04 07:54:18;;;;;;;;;;;;;;;30.16;26.25;99116.09;5018608;28;19921;-89
2023/10/04 07:56:45;;;;;;;;;;;;;;;30.60;25.79;99107.41;5016261;28;19925;-91
2023/10/04 07:59:12;;;;;;;;;;;;;;;31.03;25.14;99104.00;5016049;28;19918;-91
2023/10/04 08:01:40;;;;;;;;;;;;;;;30.92;25.21;99106.41;5016322;28;20373;-90
2023/10/04 08:04:09;;;;;;;;;;;;;;;31.47;24.86;99107.75;5016922;28;19928;-91
2023/10/04 08:06:39;;;;;;;;;;;;;;;32.12;25.09;99104.13;5016232;28;20337;-91
2023/10/04 08:09:05;;;;;;;;;;;;;;;32.42;24.05;99091.94;5016220;28;20332;-91
2023/10/04 08:11:34;;;;;;;;;;;;;;;31.65;24.80;99088.00;5016135;28;19921;-91
2023/10/04 08:14:01;;;;;;;;;;;;;;;31.61;25.02;99080.88;5015888;28;20415;-93
2023/10/04 08:16:27;;;;;;;;;;;;;;;32.09;24.61;99086.75;4996712;28;19965;-91
2023/10/04 08:18:56;;;;;;;;;;;;;;;32.32;23.87;99078.97;4996375;28;19925;-91
2023/10/04 08:21:25;;;;;;;;;;;;;;;32.27;24.42;99088.91;5012411;28;19921;-91
2023/10/04 08:23:51;;;;;;;;;;;;;;;32.23;24.95;99096.75;5015632;28;19933;-92
2023/10/04 08:26:17;;;;;;;;;;;;;;;32.53;24.25;99104.53;5015948;28;19921;-91
2023/10/04 08:28:43;;;;;;;;;;;;;;;32.47;24.47;99100.66;5015527;28;19918;-92
2023/10/04 08:31:09;;;;;;;;;;;;;;;32.66;24.49;99093.03;5015774;28;19939;-92
2023/10/04 08:33:35;;;;;;;;;;;;;;;33.18;24.33;99092.06;5015489;28;19969;-92
2023/10/04 08:36:08;;;;;;;;;;;;;;;32.42;24.04;99091.94;5015601;28;19917;-92
2023/10/04 08:38:34;;;;;;;;;;;;;;;32.62;23.77;99084.66;5016449;28;20263;-91
2023/10/04 08:41:02;;;;;;;;;;;;;;;31.18;25.25;99092.97;5015417;28;19972;-90
2023/10/04 08:43:29;;;;;;;;;;;;;;;31.45;25.09;99092.41;5015256;28;19921;-90
2023/10/04 08:45:56;;;;;;;;;;;;;;;32.13;24.27;99094.34;5015606;28;19953;-89
2023/10/04 08:48:25;;;;;;;;;;;;;;;31.50;24.65;99101.16;5015900;28;19917;-90
2023/10/04 08:51:11;;;;;;;;;;;;;;;31.56;24.64;99098.50;5013886;28;19963;-90
2023/10/04 08:53:53;;;;;;;;;;;;;;;31.44;24.80;99105.03;5016179;28;19926;-91
2023/10/04 08:56:19;;;;;;;;;;;;;;;31.09;25.34;99110.66;5014951;28;19929;-91
2023/10/04 08:58:46;;;;;;;;;;;;;;;30.57;27.61;99099.81;5015230;28;19922;-91
2023/10/04 09:01:13;;;;;;;;;;;;;;;31.00;24.66;99104.09;5015407;28;19923;-91
2023/10/04 09:03:40;;;;;;;;;;;;;;;30.82;30.22;99092.53;5015181;28;19925;-90
2023/10/04 09:06:10;;;;;;;;;;;;;;;30.62;24.94;99104.91;5014884;28;19939;-91
2023/10/04 09:08:43;;;;;;;;;;;;;;;30.78;25.02;99106.84;5014997;28;19928;-91
2023/10/04 09:11:10;;;;;;;;;;;;;;;30.07;25.80;99102.59;5019918;28;19921;-89
2023/10/04 09:13:47;;;;;;;;;;;;;;;29.98;25.71;99106.09;5018671;28;19918;-90
2023/10/04 09:16:17;;;;;;;;;;;;;;;30.60;25.14;99110.25;5006453;28;19922;-92
2023/10/04 09:18:43;;;;;;;;;;;;;;;31.02;25.99;99110.09;5014495;28;20012;-91
2023/10/04 09:21:15;;;;;;;;;;;;;;;31.55;23.91;99109.09;5014594;28;20024;-91
2023/10/04 09:23:43;;;;;;;;;;;;;;;30.98;24.05;99109.44;5013519;28;19921;-90
2023/10/04 09:26:16;;;;;;;;;;;;;;;30.92;24.36;99106.41;5014630;28;19964;-92
2023/10/04 09:28:42;;;;;;;;;;;;;;;32.05;23.45;99106.00;5015158;28;20021;-91
2023/10/04 09:31:09;;;;;;;;;;;;;;;31.73;24.21;99106.38;5014664;28;19918;-89
2023/10/04 09:33:35;;;;;;;;;;;;;;;31.40;24.68;99099.44;5014460;28;20012;-86
2023/10/04 09:36:01;;;;;;;;;;;;;;;31.87;23.87;99097.31;5014534;28;20388;-88
2023/10/04 09:38:30;;;;;;;;;;;;;;;32.00;24.35;99100.91;5014556;28;19921;-88
2023/10/04 09:40:57;;;;;;;;;;;;;;;32.08;23.93;99093.69;5014256;28;19944;-89
2023/10/04 09:43:36;;;;;;;;;;;;;;;32.63;22.85;99083.38;5014406;28;19917;-89
2023/10/04 09:46:04;;;;;;;;;;;;;;;32.21;24.47;99081.47;5017684;28;20459;-88
2023/10/04 09:48:31;;;;;;;;;;;;;;;32.59;23.03;99079.91;5014717;28;19956;-88
2023/10/04 09:50:58;;;;;;;;;;;;;;;32.04;23.43;99080.88;5014264;28;19979;-88
2023/10/04 09:53:24;;;;;;;;;;;;;;;30.54;28.16;99080.91;5014427;28;19922;-86
2023/10/04 09:55:52;;;;;;;;;;;;;;;30.80;24.29;99075.19;5013413;28;20423;-88
2023/10/04 09:58:22;;;;;;;;;;;;;;;31.00;24.11;99076.53;5013676;28;19922;-88
2023/10/04 10:00:49;;;;;;;;;;;;;;;30.43;24.80;99069.13;5014074;28;20396;-87
2023/10/04 10:03:16;;;;;;;;;;;;;;;29.80;27.76;99073.91;5013471;28;19917;-87
2023/10/04 10:05:43;;;;;;;;;;;;;;;31.14;25.00;99072.41;5014011;28;20377;-88
2023/10/04 10:08:12;;;;;;;;;;;;;;;31.82;23.30;99065.88;5014197;28;19914;-90
2023/10/04 10:10:43;;;;;;;;;;;;;;;32.80;22.54;99069.69;5007466;28;19925;-89
2023/10/04 10:13:10;;;;;;;;;;;;;;;32.94;21.98;99059.75;5002208;28;19921;-89
2023/10/04 10:15:36;;;;;;;;;;;;;;;32.80;22.21;99063.19;5014074;28;19918;-89
2023/10/04 10:18:03;;;;;;;;;;;;;;;32.74;22.87;99063.81;5014046;28;19972;-89
2023/10/04 10:20:30;;;;;;;;;;;;;;;31.29;23.69;99051.59;5014387;28;19922;-87
2023/10/04 10:22:59;;;;;;;;;;;;;;;31.39;23.16;99060.97;5013877;28;19968;-88
2023/10/04 10:25:29;;;;;;;;;;;;;;;31.02;23.64;99064.72;5014171;28;19924;-86
2023/10/04 10:28:04;;;;;;;;;;;;;;;30.96;23.55;99060.88;5013459;28;19921;-87
2023/10/04 10:30:31;;;;;;;;;;;;;;;31.19;27.07;99058.44;5013623;28;19921;-86
2023/10/04 10:32:58;;;;;;;;;;;;;;;31.71;22.99;99059.81;5013712;28;19932;-88
2023/10/04 10:35:42;;;;;;;;;;;;;;;31.44;25.43;99059.63;5013789;28;19917;-85
2023/10/04 10:38:27;;;;;;;;;;;;;;;31.53;27.77;99051.94;4993935;28;20321;-87
2023/10/04 10:40:53;;;;;;;;;;;;;;;30.81;23.86;99043.53;4994059;28;19983;-87
2023/10/04 10:43:19;;;;;;;;;;;;;;;29.36;26.19;99055.72;4994139;28;19921;-88
2023/10/04 10:45:46;;;;;;;;;;;;;;;29.87;28.05;99060.28;4994194;28;19941;-87
2023/10/04 10:48:12;;;;;;;;;;;;;;;30.18;24.95;99062.63;4994328;28;19918;-87
2023/10/04 10:50:41;;;;;;;;;;;;;;;30.74;24.69;99070.09;4992921;28;20344;-88
2023/10/04 10:53:10;;;;;;;;;;;;;;;31.68;23.61;99064.38;5000111;28;19960;-88
2023/10/04 10:55:38;;;;;;;;;;;;;;;32.28;22.94;99066.97;5013605;28;19972;-87
2023/10/04 10:58:04;;;;;;;;;;;;;;;31.68;23.61;99066.41;5012771;28;20288;-88
2023/10/04 11:00:33;;;;;;;;;;;;;;;30.95;23.44;99060.09;5012928;28;20288;-87
2023/10/04 11:03:00;;;;;;;;;;;;;;;31.09;24.03;99068.09;5013618;28;20068;-89
2023/10/04 11:05:26;;;;;;;;;;;;;;;31.70;22.55;99069.56;4994336;28;19917;-88
2023/10/04 11:07:53;;;;;;;;;;;;;;;31.38;22.99;99063.03;4996119;28;19918;-88
2023/10/04 11:10:20;;;;;;;;;;;;;;;32.11;22.78;99068.44;5014651;28;19921;-88
2023/10/04 11:12:47;;;;;;;;;;;;;;;31.78;23.44;99063.19;5017327;28;19917;-88
2023/10/04 11:15:20;;;;;;;;;;;;;;;32.24;22.78;99052.88;5013991;28;19960;-89
2023/10/04 11:17:46;;;;;;;;;;;;;;;32.09;22.31;99052.63;5016602;28;19981;-87
2023/10/04 11:20:17;;;;;;;;;;;;;;;31.37;22.79;99064.25;5017055;28;20401;-87
2023/10/04 11:22:44;;;;;;;;;;;;;;;31.80;23.68;99060.66;5016630;28;20385;-87
2023/10/04 11:25:12;;;;;;;;;;;;;;;31.99;22.07;99053.88;5017021;28;19969;-87
2023/10/04 11:27:40;;;;;;;;;;;;;;;31.90;22.56;99056.59;5026076;28;19921;-87
2023/10/04 11:30:10;;;;;;;;;;;;;;;31.39;23.55;99055.31;5036822;28;19917;-88
2023/10/04 11:32:39;;;;;;;;;;;;;;;30.50;23.67;99060.34;5036375;28;20012;-89
2023/10/04 11:35:08;;;;;;;;;;;;;;;31.48;23.27;99046.09;5036895;28;19972;-87
2023/10/04 11:37:41;;;;;;;;;;;;;;;30.05;27.48;99054.09;5036326;28;19945;-86
2023/10/04 11:40:10;;;;;;;;;;;;;;;30.66;24.24;99054.59;5026330;28;20425;-87
2023/10/04 11:42:36;;;;;;;;;;;;;;;31.69;25.55;99054.59;5013016;28;19976;-88
2023/10/04 11:45:21;;;;;;;;;;;;;;;32.18;22.01;99053.97;5015243;28;20008;-90
2023/10/04 11:47:57;;;;;;;;;;;;;;;32.04;22.32;99049.63;5007213;28;20429;-90
2023/10/04 11:50:23;;;;;;;;;;;;;;;31.01;22.79;99052.59;5009793;28;20012;-89
2023/10/04 11:52:52;;;;;;;;;;;;;;;31.01;27.07;99057.47;5006890;28;20577;-90
2023/10/04 11:55:24;;;;;;;;;;;;;;;31.96;22.76;99051.94;5009727;28;19922;-89
2023/10/04 11:57:51;;;;;;;;;;;;;;;32.21;22.85;99044.50;5008997;28;19928;-87
2023/10/04 12:00:18;;;;;;;;;;;;;;;32.06;23.00;99053.59;5012691;28;20377;-88
2023/10/04 12:02:44;;;;;;;;;;;;;;;31.48;25.27;99057.44;5013777;28;20017;-87
2023/10/04 12:05:11;;;;;;;;;;;;;;;31.80;22.81;99059.88;5007973;28;20008;-88
2023/10/04 12:07:37;;;;;;;;;;;;;;;31.72;22.85;99059.34;5007519;28;19968;-87
2023/10/04 12:10:05;;;;;;;;;;;;;;;31.76;22.58;99064.91;4999907;28;20325;-91
2023/10/04 12:12:32;;;;;;;;;;;;;;;30.98;25.22;99062.03;5004107;28;19921;-89
2023/10/04 12:14:58;;;;;;;;;;;;;;;31.52;22.90;99063.78;5012607;28;19921;-91
2023/10/04 12:17:24;;;;;;;;;;;;;;;32.15;23.21;99057.72;5009981;28;20020;-91
2023/10/04 12:19:50;;;;;;;;;;;;;;;31.57;22.41;99054.66;5007415;28;19933;-91
2023/10/04 12:22:19;;;;;;;;;;;;;;;32.16;22.97;99050.78;5010115;28;19931;-91
2023/10/04 12:24:46;;;;;;;;;;;;;;;31.81;22.82;99050.09;5015025;28;20420;-91
2023/10/04 12:27:16;;;;;;;;;;;;;;;31.41;22.98;99059.25;5014005;28;20385;-91
2023/10/04 12:29:42;;;;;;;;;;;;;;;30.25;32.15;99056.72;5006673;28;20296;-88
2023/10/04 12:32:08;;;;;;;;;;;;;;;30.62;29.65;99055.94;5004898;28;19922;-89
2023/10/04 12:34:34;;;;;;;;;;;;;;;31.41;23.51;99052.78;5004873;28;19921;-91
2023/10/04 12:37:00;;;;;;;;;;;;;;;31.75;28.75;99049.91;5010546;28;19926;-89
2023/10/04 12:39:26;;;;;;;;;;;;;;;31.82;23.59;99061.00;5005752;28;19921;-90
2023/10/04 12:41:55;;;;;;;;;;;;;;;32.16;23.13;99040.19;5004412;28;19971;-91
2023/10/04 12:44:21;;;;;;;;;;;;;;;32.07;22.29;99051.53;5004229;28;19917;-89
2023/10/04 12:46:48;;;;;;;;;;;;;;;31.33;24.46;99038.06;5013846;28;20012;-90
2023/10/04 12:49:15;;;;;;;;;;;;;;;31.82;22.32;99043.94;5003448;28;19921;-90
2023/10/04 12:51:42;;;;;;;;;;;;;;;31.47;22.80;99038.81;5015728;28;19925;-91
2023/10/04 12:54:09;;;;;;;;;;;;;;;30.83;23.96;99037.41;5002448;28;19922;-92
2023/10/04 12:56:36;;;;;;;;;;;;;;;30.94;23.67;99030.16;5005156;28;19960;-89
2023/10/04 12:59:03;;;;;;;;;;;;;;;31.08;23.15;99028.84;5007395;28;20066;-89